createdAt,value
2019-02-05T00:01:34.943Z,6.77
2019-02-05T00:03:59.691Z,6.73
2019-02-05T00:06:24.178Z,6.63
2019-02-05T00:08:48.586Z,6.70
2019-02-05T00:11:13.077Z,6.57
2019-02-05T00:13:37.471Z,5.67
2019-02-05T00:16:02.014Z,6.17
2019-02-05T00:18:26.434Z,6.50
2019-02-05T00:20:50.835Z,6.37
2019-02-05T00:23:15.395Z,6.37
2019-02-05T00:25:39.800Z,5.70
2019-02-05T00:28:04.638Z,5.90
2019-02-05T00:30:29.111Z,6.00
2019-02-05T00:32:53.534Z,5.53
2019-02-05T00:35:17.994Z,5.60
2019-02-05T00:37:42.591Z,5.97
2019-02-05T00:40:12.792Z,5.80
2019-02-05T00:42:37.281Z,5.80
2019-02-05T00:45:01.696Z,6.60
2019-02-05T00:47:26.556Z,6.00
2019-02-05T00:49:51.362Z,6.47
2019-02-05T00:52:15.766Z,5.67
2019-02-05T00:54:40.321Z,6.50
2019-02-05T00:57:04.905Z,6.33
2019-02-05T00:59:29.328Z,6.17
2019-02-05T01:01:53.717Z,5.70
2019-02-05T01:04:18.279Z,5.97
2019-02-05T01:06:42.744Z,5.87
2019-02-05T01:09:08.985Z,6.30
2019-02-05T01:11:33.451Z,6.37
2019-02-05T01:13:59.521Z,6.17
2019-02-05T01:16:23.944Z,5.70
2019-02-05T01:18:48.334Z,6.33
2019-02-05T01:21:12.826Z,6.53
2019-02-05T01:23:37.213Z,6.37
2019-02-05T01:26:01.624Z,6.67
2019-02-05T01:28:26.019Z,5.80
2019-02-05T01:30:50.439Z,5.57
2019-02-05T01:33:14.833Z,5.67
2019-02-05T01:35:39.316Z,5.83
2019-02-05T01:38:04.133Z,5.83
2019-02-05T01:40:28.694Z,5.80
2019-02-05T01:42:53.223Z,6.10
2019-02-05T01:45:19.081Z,6.03
2019-02-05T01:47:43.766Z,5.47
2019-02-05T01:50:10.935Z,5.77
2019-02-05T01:52:35.330Z,5.73
2019-02-05T01:54:59.730Z,5.47
2019-02-05T01:57:24.148Z,6.10
2019-02-05T01:59:48.542Z,5.93
2019-02-05T02:02:13.277Z,5.23
2019-02-05T02:04:37.740Z,5.73
2019-02-05T02:07:03.209Z,5.83
2019-02-05T02:09:27.569Z,5.37
2019-02-05T02:11:51.990Z,6.17
2019-02-05T02:14:16.384Z,6.67
2019-02-05T02:16:40.806Z,6.63
2019-02-05T02:19:05.347Z,5.57
2019-02-05T02:21:29.818Z,6.17
2019-02-05T02:23:54.227Z,6.87
2019-02-05T02:26:19.063Z,6.63
2019-02-05T02:28:43.557Z,7.13
2019-02-05T02:31:08.029Z,7.10
2019-02-05T02:33:32.450Z,7.30
2019-02-05T02:35:56.983Z,6.87
2019-02-05T02:38:21.473Z,7.57
2019-02-05T02:40:45.861Z,6.80
2019-02-05T02:43:10.279Z,7.70
2019-02-05T02:45:34.678Z,7.53
2019-02-05T02:47:59.247Z,8.10
2019-02-05T02:50:24.071Z,8.40
2019-02-05T02:52:48.619Z,8.70
2019-02-05T02:55:13.177Z,7.83
2019-02-05T02:57:37.717Z,7.93
2019-02-05T03:00:02.150Z,9.03
2019-02-05T03:02:26.634Z,8.27
2019-02-05T03:04:51.153Z,8.07
2019-02-05T03:07:15.555Z,8.73
2019-02-05T03:09:39.982Z,8.50
2019-02-05T03:12:04.522Z,8.93
2019-02-05T03:14:28.934Z,8.37
2019-02-05T03:16:53.352Z,8.07
2019-02-05T03:19:18.196Z,8.73
2019-02-05T03:21:42.801Z,9.33
2019-02-05T03:24:07.274Z,9.13
2019-02-05T03:26:31.705Z,9.33
2019-02-05T03:28:56.110Z,8.10
2019-02-05T03:31:20.537Z,7.87
2019-02-05T03:33:44.955Z,8.30
2019-02-05T03:36:09.388Z,7.90
2019-02-05T03:38:33.796Z,8.30
2019-02-05T03:41:01.278Z,8.80
2019-02-05T03:43:25.869Z,8.83
2019-02-05T03:45:50.432Z,9.07
2019-02-05T03:48:16.084Z,9.27
2019-02-05T03:50:43.714Z,8.83
2019-02-05T03:53:11.164Z,8.77
2019-02-05T03:55:50.405Z,9.20
2019-02-05T03:58:17.850Z,8.97
2019-02-05T04:00:48.245Z,9.13
2019-02-05T04:03:35.122Z,9.23
2019-02-05T04:06:05.436Z,8.90
2019-02-05T04:08:35.737Z,9.10
2019-02-05T04:11:11.983Z,9.60
2019-02-05T04:13:55.779Z,9.97
2019-02-05T04:16:45.429Z,9.53
2019-02-05T04:19:33.917Z,9.70
2019-02-05T04:22:25.178Z,8.77
2019-02-05T04:25:01.318Z,9.03
2019-02-05T04:27:44.992Z,8.50
2019-02-05T04:30:09.646Z,9.37
2019-02-05T04:32:51.733Z,9.80
2019-02-05T04:35:33.313Z,9.90
2019-02-05T04:38:12.661Z,10.07
2019-02-05T04:41:08.449Z,9.27
2019-02-05T04:43:51.039Z,9.17
2019-02-05T04:46:40.307Z,9.97
2019-02-05T04:49:24.265Z,10.10
2019-02-05T04:52:09.560Z,9.53
2019-02-05T04:54:37.023Z,10.33
2019-02-05T04:57:10.112Z,9.87
2019-02-05T04:59:49.723Z,10.70
2019-02-05T05:02:24.139Z,11.00
2019-02-05T05:04:54.674Z,9.93
2019-02-05T05:07:27.819Z,10.23
2019-02-05T05:09:54.667Z,10.57
2019-02-05T05:12:19.492Z,10.57
2019-02-05T05:14:43.960Z,10.17
2019-02-05T05:17:08.493Z,10.30
2019-02-05T05:19:33.524Z,10.30
2019-02-05T05:21:58.193Z,11.20
2019-02-05T05:24:22.855Z,10.90
2019-02-05T05:26:47.514Z,11.57
2019-02-05T05:29:12.058Z,12.20
2019-02-05T05:31:36.636Z,13.10
2019-02-05T05:34:01.181Z,11.70
2019-02-05T05:36:25.697Z,11.83
2019-02-05T05:38:50.108Z,11.57
2019-02-05T05:41:14.793Z,11.33
2019-02-05T05:43:39.237Z,11.13
2019-02-05T05:46:03.716Z,11.97
2019-02-05T05:48:28.226Z,12.47
2019-02-05T05:50:52.700Z,11.60
2019-02-05T05:53:17.128Z,12.80
2019-02-05T05:55:41.749Z,12.83
2019-02-05T05:58:06.327Z,12.57
2019-02-05T06:00:30.793Z,13.30
2019-02-05T06:02:55.368Z,13.20
2019-02-05T06:05:20.116Z,13.83
2019-02-05T06:07:44.898Z,13.47
2019-02-05T06:10:12.967Z,12.77
2019-02-05T06:12:37.417Z,14.00
2019-02-05T06:15:01.834Z,14.03
2019-02-05T06:17:26.399Z,15.07
2019-02-05T06:19:50.897Z,14.47
2019-02-05T06:22:15.311Z,14.47
2019-02-05T06:24:39.806Z,15.57
2019-02-05T06:27:04.455Z,15.37
2019-02-05T06:29:28.877Z,15.80
2019-02-05T06:31:53.471Z,16.00
2019-02-05T06:34:18.266Z,15.93
2019-02-05T06:36:42.743Z,15.73
2019-02-05T06:39:08.319Z,16.63
2019-02-05T06:41:32.718Z,17.23
2019-02-05T06:43:57.142Z,17.10
2019-02-05T06:46:21.576Z,16.53
2019-02-05T06:48:46.061Z,17.53
2019-02-05T06:51:10.553Z,17.73
2019-02-05T06:53:34.977Z,17.13
2019-02-05T06:55:59.395Z,16.47
2019-02-05T06:58:23.819Z,17.07
2019-02-05T07:00:49.831Z,17.73
2019-02-05T07:03:14.582Z,17.27
2019-02-05T07:05:39.048Z,18.97
2019-02-05T07:08:03.558Z,17.33
2019-02-05T07:10:28.065Z,18.87
2019-02-05T07:12:52.658Z,17.47
2019-02-05T07:15:17.158Z,17.47
2019-02-05T07:17:49.388Z,19.33
2019-02-05T07:20:13.062Z,18.10
2019-02-05T07:22:37.563Z,18.33
2019-02-05T07:25:01.999Z,18.60
2019-02-05T07:27:26.726Z,18.77
2019-02-05T07:29:51.152Z,19.37
2019-02-05T07:32:15.738Z,19.57
2019-02-05T07:34:40.143Z,18.97
2019-02-05T07:37:04.907Z,19.17
2019-02-05T07:39:29.359Z,19.80
2019-02-05T07:41:53.797Z,19.63
2019-02-05T07:44:18.291Z,20.37
2019-02-05T07:46:42.820Z,19.63
2019-02-05T07:49:07.281Z,19.13
2019-02-05T07:51:31.712Z,19.27
2019-02-05T07:53:56.163Z,19.33
2019-02-05T07:56:20.586Z,18.90
2019-02-05T07:58:45.121Z,19.10
2019-02-05T08:01:09.904Z,19.20
2019-02-05T08:03:34.387Z,18.77
2019-02-05T08:05:58.827Z,20.10
2019-02-05T08:08:23.600Z,19.87
2019-02-05T08:10:48.220Z,18.73
2019-02-05T08:13:12.797Z,19.53
2019-02-05T08:15:37.249Z,18.70
2019-02-05T08:18:02.022Z,19.67
2019-02-05T08:20:26.550Z,20.03
2019-02-05T08:22:51.212Z,19.90
2019-02-05T08:25:15.956Z,20.50
2019-02-05T08:27:40.465Z,19.07
2019-02-05T08:30:07.974Z,20.00
2019-02-05T08:32:34.167Z,20.70
2019-02-05T08:34:58.709Z,21.07
2019-02-05T08:37:23.149Z,20.10
2019-02-05T08:39:47.582Z,21.07
2019-02-05T08:42:12.112Z,19.50
2019-02-05T08:44:36.537Z,20.00
2019-02-05T08:47:00.988Z,19.97
2019-02-05T08:49:25.419Z,19.20
2019-02-05T08:51:49.897Z,19.93
2019-02-05T08:54:14.321Z,19.00
2019-02-05T08:56:38.848Z,19.50
2019-02-05T08:59:03.363Z,20.83
2019-02-05T09:01:27.884Z,18.70
2019-02-05T09:03:52.710Z,18.30
2019-02-05T09:06:17.248Z,20.03
2019-02-05T09:08:41.679Z,19.57
2019-02-05T09:11:06.271Z,20.03
2019-02-05T09:13:30.774Z,20.93
2019-02-05T09:15:55.201Z,18.50
2019-02-05T09:18:19.737Z,19.67
2019-02-05T09:20:44.244Z,19.60
2019-02-05T09:23:08.773Z,19.87
2019-02-05T09:25:33.344Z,19.70
2019-02-05T09:27:57.972Z,18.30
2019-02-05T09:30:27.323Z,20.03
2019-02-05T09:32:54.473Z,18.73
2019-02-05T09:35:18.963Z,17.57
2019-02-05T09:37:43.585Z,19.53
2019-02-05T09:40:13.947Z,18.87
2019-02-05T09:42:38.475Z,18.73
2019-02-05T09:45:02.969Z,18.67
2019-02-05T09:47:27.425Z,18.17
2019-02-05T09:49:51.927Z,16.43
2019-02-05T09:52:16.395Z,18.13
2019-02-05T09:54:40.899Z,17.50
2019-02-05T09:57:05.923Z,16.93
2019-02-05T09:59:30.374Z,16.50
2019-02-05T10:01:54.877Z,16.77
2019-02-05T10:04:19.335Z,16.90
2019-02-05T10:06:43.761Z,16.87
2019-02-05T10:09:08.770Z,16.73
2019-02-05T10:11:33.204Z,15.70
2019-02-05T10:13:57.666Z,16.37
2019-02-05T10:16:22.094Z,16.47
2019-02-05T10:18:46.560Z,17.00
2019-02-05T10:21:11.234Z,16.60
2019-02-05T10:23:35.810Z,15.30
2019-02-05T10:26:00.740Z,14.53
2019-02-05T10:28:25.364Z,15.83
2019-02-05T10:30:49.882Z,15.77
2019-02-05T10:33:14.389Z,14.00
2019-02-05T10:35:38.993Z,16.37
2019-02-05T10:38:03.754Z,15.77
2019-02-05T10:40:28.424Z,16.27
2019-02-05T10:42:53.200Z,15.47
2019-02-05T10:45:19.672Z,15.53
2019-02-05T10:47:44.202Z,15.63
2019-02-05T10:50:11.498Z,15.60
2019-02-05T10:52:36.405Z,15.10
2019-02-05T10:55:00.878Z,14.73
2019-02-05T10:57:25.443Z,15.33
2019-02-05T10:59:49.878Z,15.00
2019-02-05T11:02:14.475Z,14.60
2019-02-05T11:04:39.045Z,14.83
2019-02-05T11:07:03.588Z,14.47
2019-02-05T11:09:28.091Z,14.20
2019-02-05T11:11:52.626Z,13.73
2019-02-05T11:14:17.126Z,14.37
2019-02-05T11:16:41.566Z,14.70
2019-02-05T11:19:06.351Z,13.57
2019-02-05T11:21:31.065Z,13.40
2019-02-05T11:23:55.692Z,11.73
2019-02-05T11:26:20.192Z,12.90
2019-02-05T11:28:44.656Z,13.27
2019-02-05T11:31:09.235Z,12.67
2019-02-05T11:33:33.700Z,11.67
2019-02-05T11:35:58.205Z,12.67
2019-02-05T11:38:22.687Z,13.47
2019-02-05T11:40:47.453Z,13.30
2019-02-05T11:43:11.981Z,13.90
2019-02-05T11:45:36.662Z,13.07
2019-02-05T11:48:02.525Z,12.77
2019-02-05T11:50:27.502Z,12.00
2019-02-05T11:52:52.272Z,12.53
2019-02-05T11:55:19.067Z,13.57
2019-02-05T11:57:43.571Z,13.17
2019-02-05T12:00:12.313Z,13.43
2019-02-05T12:02:36.828Z,14.20
2019-02-05T12:05:01.281Z,12.40
2019-02-05T12:07:25.784Z,13.40
2019-02-05T12:09:50.362Z,12.90
2019-02-05T12:12:14.827Z,13.80
2019-02-05T12:14:39.327Z,13.30
2019-02-05T12:17:03.781Z,14.13
2019-02-05T12:19:28.599Z,12.50
2019-02-05T12:21:53.205Z,13.73
2019-02-05T12:24:17.703Z,14.63
2019-02-05T12:26:42.321Z,14.77
2019-02-05T12:29:06.886Z,14.93
2019-02-05T12:31:31.420Z,13.30
2019-02-05T12:33:55.855Z,14.43
2019-02-05T12:36:20.386Z,14.97
2019-02-05T12:38:47.589Z,14.27
2019-02-05T12:41:14.266Z,13.93
2019-02-05T12:43:38.775Z,13.63
2019-02-05T12:46:03.624Z,13.57
2019-02-05T12:48:28.065Z,13.60
2019-02-05T12:50:52.573Z,14.30
2019-02-05T12:53:17.246Z,14.03
2019-02-05T12:55:41.756Z,14.10
2019-02-05T12:58:06.870Z,13.13
2019-02-05T13:00:39.962Z,13.40
2019-02-05T13:03:04.753Z,13.80
2019-02-05T13:05:29.736Z,13.17
2019-02-05T13:07:54.617Z,12.40
2019-02-05T13:10:24.916Z,13.43
2019-02-05T13:12:49.464Z,13.43
2019-02-05T13:15:14.121Z,13.87
2019-02-05T13:17:38.553Z,12.70
2019-02-05T13:20:04.598Z,13.23
2019-02-05T13:22:29.115Z,12.83
2019-02-05T13:24:53.640Z,12.97
2019-02-05T13:27:18.235Z,14.23
2019-02-05T13:29:43.091Z,12.43
2019-02-05T13:32:07.664Z,12.70
2019-02-05T13:34:32.117Z,12.80
2019-02-05T13:36:56.631Z,9.50
2019-02-05T13:39:21.094Z,12.43
2019-02-05T13:41:45.532Z,11.20
2019-02-05T13:44:10.053Z,11.13
2019-02-05T13:46:34.560Z,10.40
2019-02-05T13:48:59.035Z,10.70
2019-02-05T13:51:25.182Z,10.70
2019-02-05T13:53:49.976Z,10.57
2019-02-05T13:56:17.656Z,11.90
2019-02-05T13:58:42.241Z,12.53
2019-02-05T14:01:06.947Z,11.20
2019-02-05T14:03:31.460Z,11.30
2019-02-05T14:05:55.993Z,11.77
2019-02-05T14:08:20.520Z,10.53
2019-02-05T14:10:46.935Z,10.97
2019-02-05T14:13:11.511Z,11.93
2019-02-05T14:15:38.768Z,10.90
2019-02-05T14:18:03.633Z,11.07
2019-02-05T14:20:28.167Z,11.03
2019-02-05T14:22:52.602Z,11.97
2019-02-05T14:25:17.805Z,10.97
2019-02-05T14:27:42.324Z,11.50
2019-02-05T14:30:30.578Z,11.67
2019-02-05T14:32:55.153Z,11.60
2019-02-05T14:35:20.006Z,11.43
2019-02-05T14:37:44.466Z,11.60
2019-02-05T14:40:11.963Z,11.80
2019-02-05T14:42:36.429Z,10.87
2019-02-05T14:45:00.925Z,12.93
2019-02-05T14:47:28.926Z,12.47
2019-02-05T14:49:53.369Z,11.67
2019-02-05T14:52:17.869Z,11.43
2019-02-05T14:54:42.458Z,11.23
2019-02-05T14:57:07.377Z,11.67
2019-02-05T14:59:31.843Z,12.03
2019-02-05T15:01:56.357Z,12.60
2019-02-05T15:04:20.887Z,11.80
2019-02-05T15:06:45.380Z,11.40
2019-02-05T15:09:09.967Z,11.93
2019-02-05T15:11:34.512Z,11.73
2019-02-05T15:13:59.020Z,11.37
2019-02-05T15:16:23.526Z,11.27
2019-02-05T15:18:47.989Z,12.10
2019-02-05T15:21:12.877Z,11.67
2019-02-05T15:23:37.354Z,12.23
2019-02-05T15:26:01.811Z,12.33
2019-02-05T15:28:26.289Z,13.80
2019-02-05T15:30:50.778Z,12.37
2019-02-05T15:33:36.118Z,13.07
2019-02-05T15:36:02.265Z,13.33
2019-02-05T15:38:27.175Z,12.83
2019-02-05T15:40:51.682Z,13.30
2019-02-05T15:43:16.265Z,13.43
2019-02-05T15:45:40.766Z,13.40
2019-02-05T15:48:05.367Z,13.67
2019-02-05T15:50:29.792Z,13.93
2019-02-05T15:52:54.330Z,14.10
2019-02-05T15:55:20.980Z,12.90
2019-02-05T15:57:45.073Z,12.43
2019-02-05T16:00:20.329Z,13.63
2019-02-05T16:02:44.922Z,13.27
2019-02-05T16:05:11.536Z,13.37
2019-02-05T16:07:35.977Z,12.10
2019-02-05T16:10:00.481Z,12.47
2019-02-05T16:12:24.900Z,13.47
2019-02-05T16:14:49.385Z,13.57
2019-02-05T16:17:13.904Z,13.40
2019-02-05T16:19:38.377Z,13.33
2019-02-05T16:22:03.216Z,13.13
2019-02-05T16:24:27.695Z,13.57
2019-02-05T16:26:52.145Z,13.57
2019-02-05T16:29:16.653Z,13.60
2019-02-05T16:31:41.139Z,14.10
2019-02-05T16:34:05.704Z,13.83
2019-02-05T16:36:30.272Z,12.77
2019-02-05T16:38:54.714Z,14.17
2019-02-05T16:41:19.327Z,15.23
2019-02-05T16:43:43.769Z,14.43
2019-02-05T16:46:08.331Z,13.87
2019-02-05T16:48:33.039Z,14.97
2019-02-05T16:50:57.520Z,14.23
2019-02-05T16:53:22.092Z,15.37
2019-02-05T16:55:46.594Z,14.73
2019-02-05T16:58:11.160Z,14.83
2019-02-05T17:00:39.568Z,14.07
2019-02-05T17:03:04.590Z,13.83
2019-02-05T17:05:31.053Z,13.47
2019-02-05T17:07:55.684Z,14.37
2019-02-05T17:10:22.520Z,14.03
2019-02-05T17:12:47.204Z,14.30
2019-02-05T17:15:14.004Z,13.93
2019-02-05T17:17:38.475Z,13.77
2019-02-05T17:20:02.991Z,15.37
2019-02-05T17:22:27.503Z,14.23
2019-02-05T17:24:52.025Z,13.80
2019-02-05T17:27:16.532Z,14.23
2019-02-05T17:29:40.997Z,14.43
2019-02-05T17:32:07.751Z,14.30
2019-02-05T17:34:31.953Z,13.07
2019-02-05T17:36:56.492Z,13.63
2019-02-05T17:39:21.055Z,13.37
2019-02-05T17:41:45.589Z,13.97
2019-02-05T17:44:10.142Z,13.30
2019-02-05T17:46:34.658Z,14.17
2019-02-05T17:48:59.146Z,14.27
2019-02-05T17:51:23.657Z,14.30
2019-02-05T17:53:48.214Z,14.47
2019-02-05T17:56:12.783Z,14.57
2019-02-05T17:58:37.287Z,15.67
2019-02-05T18:01:03.600Z,16.10
2019-02-05T18:03:28.037Z,16.50
2019-02-05T18:05:52.508Z,16.70
2019-02-05T18:08:17.012Z,14.40
2019-02-05T18:10:42.116Z,15.47
2019-02-05T18:13:06.751Z,15.60
2019-02-05T18:15:36.093Z,14.57
2019-02-05T18:18:00.619Z,14.87
2019-02-05T18:20:25.229Z,14.50
2019-02-05T18:22:50.023Z,15.10
2019-02-05T18:25:19.288Z,15.43
2019-02-05T18:27:43.903Z,16.90
2019-02-05T18:30:11.426Z,16.97
2019-02-05T18:32:36.025Z,16.43
2019-02-05T18:35:00.532Z,15.93
2019-02-05T18:37:25.149Z,15.80
2019-02-05T18:39:49.688Z,18.13
2019-02-05T18:42:14.174Z,17.43
2019-02-05T18:44:39.025Z,17.73
2019-02-05T18:47:07.568Z,18.53
2019-02-05T18:49:32.000Z,18.93
2019-02-05T18:51:56.545Z,19.70
2019-02-05T18:54:21.000Z,19.07
2019-02-05T18:56:45.546Z,19.20
2019-02-05T18:59:10.061Z,19.03
2019-02-05T19:01:34.539Z,20.73
2019-02-05T19:03:59.065Z,23.03
2019-02-05T19:06:23.565Z,26.80
2019-02-05T19:08:48.450Z,26.80
2019-02-05T19:11:13.061Z,25.07
2019-02-05T19:13:37.689Z,30.03
2019-02-05T19:16:02.267Z,27.60
2019-02-05T19:18:26.859Z,29.23
2019-02-05T19:20:51.372Z,23.77
2019-02-05T19:23:15.929Z,24.33
2019-02-05T19:25:54.029Z,24.13
2019-02-05T19:28:23.245Z,23.87
2019-02-05T19:30:49.337Z,24.87
2019-02-05T19:33:13.891Z,25.03
2019-02-05T19:35:38.402Z,24.93
2019-02-05T19:38:02.954Z,26.17
2019-02-05T19:40:27.551Z,25.60
2019-02-05T19:42:52.194Z,26.17
2019-02-05T19:45:21.733Z,26.93
2019-02-05T19:47:46.336Z,26.97
2019-02-05T19:50:11.043Z,26.40
2019-02-05T19:52:35.862Z,25.77
2019-02-05T19:55:00.418Z,26.27
2019-02-05T19:57:24.935Z,27.30
2019-02-05T19:59:49.666Z,28.27
2019-02-05T20:02:14.197Z,27.37
2019-02-05T20:04:38.740Z,27.37
2019-02-05T20:07:03.266Z,28.40
2019-02-05T20:09:27.802Z,29.07
2019-02-05T20:11:52.250Z,27.73
2019-02-05T20:14:16.761Z,29.20
2019-02-05T20:16:41.324Z,27.03
2019-02-05T20:19:05.914Z,27.43
2019-02-05T20:21:31.989Z,28.03
2019-02-05T20:23:56.734Z,28.47
2019-02-05T20:26:21.278Z,26.30
2019-02-05T20:28:45.742Z,26.70
2019-02-05T20:31:10.365Z,27.10
2019-02-05T20:33:34.823Z,26.77
2019-02-05T20:35:59.312Z,25.17
2019-02-05T20:38:23.759Z,27.27
2019-02-05T20:40:48.242Z,26.87
2019-02-05T20:43:12.754Z,26.43
2019-02-05T20:45:37.484Z,26.37
2019-02-05T20:48:01.954Z,26.50
2019-02-05T20:50:26.459Z,24.70
2019-02-05T20:52:54.144Z,26.70
2019-02-05T20:55:21.638Z,26.27
2019-02-05T20:57:46.180Z,25.63
2019-02-05T21:00:16.357Z,24.30
2019-02-05T21:02:40.882Z,23.93
2019-02-05T21:05:08.856Z,23.57
2019-02-05T21:07:33.330Z,24.43
2019-02-05T21:09:57.773Z,23.67
2019-02-05T21:12:22.247Z,23.33
2019-02-05T21:14:46.696Z,22.00
2019-02-05T21:17:11.330Z,22.33
2019-02-05T21:19:35.774Z,21.57
2019-02-05T21:22:00.387Z,21.40
2019-02-05T21:24:24.813Z,21.77
2019-02-05T21:26:49.339Z,20.73
2019-02-05T21:29:13.847Z,21.83
2019-02-05T21:31:38.446Z,24.83
2019-02-05T21:34:14.859Z,22.80
2019-02-05T21:36:29.129Z,20.30
2019-02-05T21:38:53.650Z,20.40
2019-02-05T21:41:18.127Z,19.60
2019-02-05T21:43:42.740Z,20.10
2019-02-05T21:46:07.327Z,19.80
2019-02-05T21:48:31.793Z,19.93
2019-02-05T21:50:56.227Z,18.90
2019-02-05T21:53:20.695Z,20.13
2019-02-05T21:55:45.196Z,19.87
2019-02-05T21:58:12.445Z,19.30
2019-02-05T22:00:36.648Z,20.40
2019-02-05T22:03:01.109Z,20.00
2019-02-05T22:05:26.354Z,22.10
2019-02-05T22:07:50.800Z,21.70
2019-02-05T22:10:16.090Z,19.80
2019-02-05T22:12:40.680Z,20.30
2019-02-05T22:15:13.647Z,19.57
2019-02-05T22:17:38.121Z,18.87
2019-02-05T22:20:02.827Z,19.20
2019-02-05T22:22:27.371Z,18.97
2019-02-05T22:24:51.841Z,17.17
2019-02-05T22:27:16.321Z,18.50
2019-02-05T22:29:40.838Z,18.80
2019-02-05T22:32:05.448Z,19.63
2019-02-05T22:34:38.747Z,18.23
2019-02-05T22:36:56.147Z,18.93
2019-02-05T22:39:20.657Z,18.00
2019-02-05T22:41:45.137Z,18.43
2019-02-05T22:44:09.623Z,18.53
2019-02-05T22:46:34.420Z,19.07
2019-02-05T22:48:58.891Z,18.83
2019-02-05T22:51:23.300Z,17.73
2019-02-05T22:53:47.755Z,18.13
2019-02-05T22:56:12.274Z,17.37
2019-02-05T22:58:37.024Z,18.50
2019-02-05T23:01:16.333Z,18.60
2019-02-05T23:03:46.646Z,18.23
2019-02-05T23:06:32.389Z,18.57
2019-02-05T23:09:00.085Z,19.13
2019-02-05T23:11:42.229Z,18.23
2019-02-05T23:14:06.854Z,18.87
2019-02-05T23:16:31.365Z,19.13
2019-02-05T23:18:55.895Z,19.07
2019-02-05T23:21:20.317Z,19.07
2019-02-05T23:23:44.820Z,20.13
2019-02-05T23:26:11.084Z,19.57
2019-02-05T23:28:35.488Z,20.13
2019-02-05T23:31:00.056Z,20.53
2019-02-05T23:33:24.541Z,18.93
2019-02-05T23:35:50.273Z,19.40
2019-02-05T23:38:14.626Z,19.87
2019-02-05T23:40:39.147Z,18.93
2019-02-05T23:43:03.895Z,18.03
2019-02-05T23:45:28.421Z,18.87
2019-02-05T23:47:52.828Z,18.73
2019-02-05T23:50:17.674Z,18.73
2019-02-05T23:52:42.698Z,18.70
2019-02-05T23:55:10.276Z,20.17
2019-02-05T23:57:34.678Z,18.77
2019-02-05T23:59:59.081Z,18.87
